createdAt,value
2022-10-27T00:02:35.837Z,76.64
2022-10-27T00:05:41.655Z,76.43
2022-10-27T00:08:47.206Z,76.17
2022-10-27T00:11:52.608Z,76.29
2022-10-27T00:14:58.101Z,76.24
2022-10-27T00:18:08.152Z,76.22
2022-10-27T00:21:16.110Z,76.32
2022-10-27T00:24:22.025Z,76.50
2022-10-27T00:27:28.393Z,76.32
2022-10-27T00:30:33.934Z,76.32
2022-10-27T00:33:39.588Z,76.30
2022-10-27T00:36:45.139Z,76.22
2022-10-27T00:39:50.993Z,76.28
2022-10-27T00:42:56.433Z,76.27
2022-10-27T00:46:06.438Z,76.29
2022-10-27T00:49:15.270Z,76.53
2022-10-27T00:52:26.812Z,76.71
2022-10-27T00:55:35.841Z,76.59
2022-10-27T00:58:42.855Z,76.45
2022-10-27T01:01:50.577Z,76.49
2022-10-27T01:05:01.247Z,76.60
2022-10-27T01:08:08.692Z,76.64
2022-10-27T01:11:14.282Z,76.59
2022-10-27T01:14:19.764Z,76.66
2022-10-27T01:17:40.131Z,76.64
2022-10-27T01:21:04.328Z,76.63
2022-10-27T01:24:35.521Z,76.91
2022-10-27T01:28:19.981Z,76.98
2022-10-27T01:31:29.257Z,76.96
2022-10-27T01:34:42.139Z,77.17
2022-10-27T01:37:53.685Z,77.15
2022-10-27T01:41:03.926Z,77.08
2022-10-27T01:44:16.553Z,77.16
2022-10-27T01:47:24.101Z,77.31
2022-10-27T01:50:45.449Z,77.35
2022-10-27T01:54:00.594Z,77.52
2022-10-27T01:57:18.332Z,77.54
2022-10-27T02:00:23.982Z,77.24
2022-10-27T02:03:36.661Z,77.24
2022-10-27T02:06:50.135Z,77.04
2022-10-27T02:10:00.599Z,76.95
2022-10-27T02:13:06.893Z,76.90
2022-10-27T02:16:13.539Z,76.95
2022-10-27T02:19:23.948Z,77.09
2022-10-27T02:22:33.168Z,77.16
2022-10-27T02:25:46.266Z,77.09
2022-10-27T02:28:57.261Z,77.11
2022-10-27T02:32:06.441Z,77.13
2022-10-27T02:35:13.859Z,77.27
2022-10-27T02:38:19.524Z,77.39
2022-10-27T02:41:25.050Z,77.44
2022-10-27T02:44:30.519Z,77.49
2022-10-27T02:47:36.068Z,77.39
2022-10-27T02:50:41.637Z,77.29
2022-10-27T02:53:47.168Z,77.29
2022-10-27T02:56:52.819Z,77.31
2022-10-27T02:59:58.268Z,77.36
2022-10-27T03:03:03.917Z,77.46
2022-10-27T03:06:09.557Z,77.66
2022-10-27T03:09:15.120Z,77.60
2022-10-27T03:12:20.565Z,77.69
2022-10-27T03:15:26.116Z,77.83
2022-10-27T03:18:31.562Z,77.83
2022-10-27T03:21:37.010Z,78.04
2022-10-27T03:24:42.504Z,78.29
2022-10-27T03:27:48.006Z,78.13
2022-10-27T03:30:53.759Z,78.12
2022-10-27T03:33:59.167Z,77.94
2022-10-27T03:37:04.654Z,78.02
2022-10-27T03:40:12.742Z,77.93
2022-10-27T03:43:18.314Z,77.90
2022-10-27T03:46:23.761Z,77.89
2022-10-27T03:49:29.335Z,77.96
2022-10-27T03:52:34.960Z,78.19
2022-10-27T03:55:40.407Z,78.46
2022-10-27T03:58:45.956Z,78.34
2022-10-27T04:01:51.788Z,78.42
2022-10-27T04:05:00.046Z,78.28
2022-10-27T04:08:05.664Z,78.10
2022-10-27T04:11:11.126Z,78.23
2022-10-27T04:14:16.557Z,78.14
2022-10-27T04:17:22.121Z,78.35
2022-10-27T04:20:28.697Z,78.18
2022-10-27T04:23:34.345Z,78.10
2022-10-27T04:26:39.793Z,78.10
2022-10-27T04:29:45.205Z,78.07
2022-10-27T04:32:54.592Z,78.14
2022-10-27T04:36:00.885Z,78.08
2022-10-27T04:39:04.842Z,78.17
2022-10-27T04:42:11.741Z,78.17
2022-10-27T04:45:17.948Z,78.04
2022-10-27T04:48:23.451Z,78.10
2022-10-27T04:51:28.942Z,78.20
2022-10-27T04:54:34.550Z,78.18
2022-10-27T04:57:39.960Z,78.25
2022-10-27T05:00:45.397Z,78.33
2022-10-27T05:03:51.128Z,78.36
2022-10-27T05:06:56.544Z,78.35
2022-10-27T05:10:01.954Z,78.24
2022-10-27T05:13:07.406Z,78.26
2022-10-27T05:16:12.883Z,78.29
2022-10-27T05:19:18.332Z,78.37
2022-10-27T05:22:23.732Z,78.16
2022-10-27T05:25:29.315Z,78.23
2022-10-27T05:28:35.084Z,78.24
2022-10-27T05:31:40.508Z,78.31
2022-10-27T05:34:46.080Z,78.49
2022-10-27T05:37:51.969Z,78.58
2022-10-27T05:41:00.965Z,78.88
2022-10-27T05:44:06.677Z,78.91
2022-10-27T05:47:12.474Z,78.85
2022-10-27T05:50:18.208Z,78.97
2022-10-27T05:53:23.930Z,78.97
2022-10-27T05:56:29.431Z,79.01
2022-10-27T05:59:34.878Z,78.97
2022-10-27T06:02:40.310Z,79.12
2022-10-27T06:05:45.873Z,79.22
2022-10-27T06:08:51.297Z,79.35
2022-10-27T06:11:56.754Z,79.23
2022-10-27T06:15:02.315Z,79.26
2022-10-27T06:18:08.069Z,79.29
2022-10-27T06:21:13.776Z,79.43
2022-10-27T06:24:19.164Z,79.68
2022-10-27T06:27:24.718Z,79.65
2022-10-27T06:30:30.168Z,79.60
2022-10-27T06:33:35.714Z,79.64
2022-10-27T06:36:41.160Z,79.82
2022-10-27T06:39:47.428Z,79.98
2022-10-27T06:43:08.186Z,79.94
2022-10-27T06:46:14.277Z,80.05
2022-10-27T06:49:20.052Z,80.36
2022-10-27T06:52:25.812Z,80.36
2022-10-27T06:55:31.718Z,80.21
2022-10-27T06:58:39.522Z,80.17
2022-10-27T07:01:45.105Z,80.27
2022-10-27T07:04:50.665Z,80.55
2022-10-27T07:07:57.482Z,80.68
2022-10-27T07:11:03.094Z,80.64
2022-10-27T07:14:08.747Z,80.78
2022-10-27T07:17:14.200Z,81.10
2022-10-27T07:20:19.641Z,81.23
2022-10-27T07:23:25.073Z,81.46
2022-10-27T07:26:30.841Z,81.46
2022-10-27T07:29:36.289Z,81.62
2022-10-27T07:32:41.837Z,81.78
2022-10-27T07:35:51.101Z,81.98
2022-10-27T07:38:57.017Z,82.05
2022-10-27T07:42:03.195Z,82.18
2022-10-27T07:45:10.489Z,82.14
2022-10-27T07:48:17.624Z,82.20
2022-10-27T07:51:23.326Z,82.36
2022-10-27T07:54:29.721Z,82.43
2022-10-27T07:57:35.244Z,82.65
2022-10-27T08:00:42.638Z,82.69
2022-10-27T08:03:51.111Z,83.11
2022-10-27T08:06:57.012Z,83.10
2022-10-27T08:10:02.971Z,83.36
2022-10-27T08:13:10.000Z,83.43
2022-10-27T08:16:15.605Z,83.53
2022-10-27T08:19:21.377Z,83.78
2022-10-27T08:22:27.056Z,83.88
2022-10-27T08:25:33.193Z,84.15
2022-10-27T08:28:38.615Z,84.13
2022-10-27T08:31:44.024Z,84.32
2022-10-27T08:34:51.593Z,84.43
2022-10-27T08:38:02.597Z,84.55
2022-10-27T08:41:21.150Z,84.72
2022-10-27T08:44:33.095Z,84.89
2022-10-27T08:47:38.850Z,84.81
2022-10-27T08:50:46.060Z,84.96
2022-10-27T08:53:55.133Z,85.05
2022-10-27T08:57:04.510Z,85.12
2022-10-27T09:00:15.399Z,85.11
2022-10-27T09:03:37.832Z,85.23
2022-10-27T09:06:57.564Z,85.13
2022-10-27T09:10:07.359Z,85.28
2022-10-27T09:13:27.172Z,85.43
2022-10-27T09:16:39.972Z,85.56
2022-10-27T09:19:49.709Z,85.60
2022-10-27T09:22:57.409Z,85.52
2022-10-27T09:26:02.896Z,85.84
2022-10-27T09:29:17.519Z,85.61
2022-10-27T09:32:27.472Z,85.62
2022-10-27T09:35:32.919Z,85.40
2022-10-27T09:38:38.688Z,85.34
2022-10-27T09:41:44.428Z,85.32
2022-10-27T09:44:55.612Z,85.63
2022-10-27T09:48:07.448Z,85.46
2022-10-27T09:51:20.429Z,85.38
2022-10-27T09:54:34.161Z,85.22
2022-10-27T09:57:42.179Z,85.31
2022-10-27T10:00:56.538Z,85.08
2022-10-27T10:04:17.085Z,85.08
2022-10-27T10:07:40.367Z,84.99
2022-10-27T10:10:57.222Z,85.03
2022-10-27T10:14:04.151Z,84.85
2022-10-27T10:17:27.759Z,84.86
2022-10-27T10:20:39.565Z,84.86
2022-10-27T10:23:54.238Z,84.68
2022-10-27T10:27:01.932Z,84.63
2022-10-27T10:30:19.198Z,84.56
2022-10-27T10:33:27.470Z,84.31
2022-10-27T10:36:38.558Z,84.08
2022-10-27T10:39:44.098Z,84.32
2022-10-27T10:43:01.319Z,84.26
2022-10-27T10:46:08.514Z,83.95
2022-10-27T10:49:23.345Z,83.88
2022-10-27T10:52:34.875Z,83.56
2022-10-27T10:55:41.130Z,83.33
2022-10-27T10:58:47.508Z,83.35
2022-10-27T11:01:57.502Z,83.22
2022-10-27T11:05:15.650Z,83.04
2022-10-27T11:08:24.359Z,83.16
2022-10-27T11:11:37.554Z,82.83
2022-10-27T11:14:46.706Z,82.46
2022-10-27T11:17:57.661Z,82.43
2022-10-27T11:21:08.656Z,82.46
2022-10-27T11:24:21.461Z,82.21
2022-10-27T11:27:33.881Z,81.71
2022-10-27T11:30:47.101Z,81.55
2022-10-27T11:33:58.995Z,81.34
2022-10-27T11:37:08.642Z,80.90
2022-10-27T11:40:23.419Z,80.75
2022-10-27T11:43:34.661Z,80.57
2022-10-27T11:46:44.614Z,80.33
2022-10-27T11:49:55.214Z,80.01
2022-10-27T11:53:02.088Z,79.67
2022-10-27T11:56:21.583Z,79.45
2022-10-27T11:59:38.998Z,79.04
2022-10-27T12:03:09.130Z,78.59
2022-10-27T12:06:22.767Z,78.37
2022-10-27T12:09:40.902Z,78.14
2022-10-27T12:12:49.078Z,77.92
2022-10-27T12:16:00.504Z,77.70
2022-10-27T12:19:11.787Z,77.25
2022-10-27T12:22:23.584Z,76.99
2022-10-27T12:25:34.418Z,76.79
2022-10-27T12:28:40.301Z,76.53
2022-10-27T12:31:47.703Z,76.22
2022-10-27T12:34:59.460Z,75.97
2022-10-27T12:38:13.142Z,75.70
2022-10-27T12:41:29.035Z,75.43
2022-10-27T12:44:46.210Z,75.43
2022-10-27T12:48:01.677Z,75.01
2022-10-27T12:51:23.465Z,74.59
2022-10-27T12:58:02.932Z,74.37
2022-10-27T13:01:15.632Z,73.82
2022-10-27T13:04:45.470Z,73.85
2022-10-27T13:08:15.389Z,73.82
2022-10-27T13:11:35.065Z,73.49
2022-10-27T13:15:17.686Z,72.86
2022-10-27T13:18:58.474Z,72.87
2022-10-27T13:22:12.572Z,72.67
2022-10-27T13:25:22.706Z,72.56
2022-10-27T13:28:34.363Z,72.67
2022-10-27T13:31:40.316Z,71.98
2022-10-27T13:34:44.541Z,71.96
2022-10-27T13:38:10.771Z,71.95
2022-10-27T13:42:07.583Z,71.71
2022-10-27T13:45:43.893Z,71.45
2022-10-27T13:48:53.353Z,71.53
2022-10-27T13:55:37.957Z,71.35
2022-10-27T13:58:57.705Z,71.18
2022-10-27T14:02:10.943Z,71.00
2022-10-27T14:05:26.802Z,70.84
2022-10-27T14:08:31.860Z,70.41
2022-10-27T14:11:37.619Z,70.32
2022-10-27T14:14:43.785Z,70.47
2022-10-27T14:17:50.861Z,70.48
2022-10-27T14:21:00.470Z,70.35
2022-10-27T14:24:11.486Z,70.12
2022-10-27T14:27:18.881Z,70.04
2022-10-27T14:30:25.129Z,70.02
2022-10-27T14:33:30.694Z,69.82
2022-10-27T14:36:38.289Z,69.59
2022-10-27T14:39:44.155Z,69.50
2022-10-27T14:42:50.973Z,69.42
2022-10-27T14:46:01.288Z,69.42
2022-10-27T14:49:10.664Z,69.16
2022-10-27T14:52:21.503Z,69.16
2022-10-27T14:55:33.707Z,69.15
2022-10-27T14:58:39.255Z,69.01
2022-10-27T15:01:45.692Z,69.24
2022-10-27T15:04:51.273Z,68.92
2022-10-27T15:07:59.792Z,68.88
2022-10-27T15:11:08.675Z,69.04
2022-10-27T15:14:14.170Z,68.92
2022-10-27T15:17:24.633Z,69.05
2022-10-27T15:20:30.287Z,69.09
2022-10-27T15:23:36.577Z,69.03
2022-10-27T15:26:42.445Z,69.17
2022-10-27T15:29:52.396Z,69.31
2022-10-27T15:32:57.910Z,69.36
2022-10-27T15:36:20.193Z,69.29
2022-10-27T15:39:26.319Z,69.35
2022-10-27T15:42:39.368Z,69.58
2022-10-27T15:45:45.857Z,69.68
2022-10-27T15:48:57.207Z,69.76
2022-10-27T15:52:07.823Z,69.73
2022-10-27T15:55:24.918Z,69.73
2022-10-27T15:58:32.904Z,69.94
2022-10-27T16:01:38.781Z,70.13
2022-10-27T16:04:47.334Z,70.25
2022-10-27T16:07:55.346Z,70.48
2022-10-27T16:11:01.030Z,70.38
2022-10-27T16:14:12.160Z,70.54
2022-10-27T16:17:20.662Z,70.57
2022-10-27T16:20:29.158Z,70.74
2022-10-27T16:23:34.698Z,70.73
2022-10-27T16:26:40.441Z,70.70
2022-10-27T16:29:45.990Z,70.75
2022-10-27T16:32:57.694Z,70.85
2022-10-27T16:36:03.082Z,71.02
2022-10-27T16:39:08.589Z,71.05
2022-10-27T16:42:14.311Z,71.14
2022-10-27T16:45:21.560Z,71.11
2022-10-27T16:48:27.185Z,71.18
2022-10-27T16:51:32.650Z,71.42
2022-10-27T16:54:39.103Z,71.45
2022-10-27T16:57:47.243Z,71.51
2022-10-27T17:00:55.151Z,71.45
2022-10-27T17:04:04.401Z,71.61
2022-10-27T17:07:10.005Z,71.64
2022-10-27T17:10:16.979Z,71.69
2022-10-27T17:13:22.648Z,71.96
2022-10-27T17:16:28.073Z,72.04
2022-10-27T17:19:33.622Z,72.13
2022-10-27T17:22:39.594Z,72.15
2022-10-27T17:25:45.043Z,72.12
2022-10-27T17:28:52.281Z,72.00
2022-10-27T17:31:57.735Z,72.06
2022-10-27T17:35:03.226Z,72.17
2022-10-27T17:38:08.674Z,72.23
2022-10-27T17:41:14.222Z,72.21
2022-10-27T17:44:19.772Z,72.30
2022-10-27T17:47:25.562Z,72.39
2022-10-27T17:50:32.646Z,72.40
2022-10-27T17:53:39.433Z,72.45
2022-10-27T17:56:44.859Z,72.59
2022-10-27T17:59:50.386Z,72.71
2022-10-27T18:02:55.974Z,72.82
2022-10-27T18:06:03.946Z,72.73
2022-10-27T18:09:11.082Z,72.86
2022-10-27T18:12:16.578Z,72.98
2022-10-27T18:15:35.582Z,72.95
2022-10-27T18:18:42.364Z,73.25
2022-10-27T18:21:49.503Z,73.02
2022-10-27T18:24:54.950Z,73.12
2022-10-27T18:28:00.720Z,73.12
2022-10-27T18:31:11.304Z,73.36
2022-10-27T18:34:17.065Z,73.38
2022-10-27T18:37:22.581Z,73.24
2022-10-27T18:40:28.131Z,73.20
2022-10-27T18:43:33.934Z,73.38
2022-10-27T18:46:39.435Z,73.44
2022-10-27T18:49:48.795Z,73.47
2022-10-27T18:52:55.032Z,73.24
2022-10-27T18:56:02.965Z,73.25
2022-10-27T18:59:08.435Z,73.41
2022-10-27T19:02:14.186Z,73.56
2022-10-27T19:05:19.770Z,73.79
2022-10-27T19:08:25.756Z,73.70
2022-10-27T19:11:31.752Z,73.75
2022-10-27T19:14:37.192Z,73.96
2022-10-27T19:17:43.121Z,73.93
2022-10-27T19:20:48.672Z,73.94
2022-10-27T19:23:58.112Z,74.06
2022-10-27T19:27:03.655Z,74.17
2022-10-27T19:30:11.311Z,74.32
2022-10-27T19:33:16.807Z,74.43
2022-10-27T19:36:24.450Z,74.17
2022-10-27T19:39:29.886Z,74.24
2022-10-27T19:42:36.673Z,74.32
2022-10-27T19:45:49.412Z,74.36
2022-10-27T19:48:56.481Z,74.35
2022-10-27T19:52:01.983Z,74.32
2022-10-27T19:55:08.717Z,74.31
2022-10-27T19:58:14.112Z,74.52
2022-10-27T20:01:22.043Z,74.43
2022-10-27T20:04:27.767Z,74.41
2022-10-27T20:07:33.212Z,74.37
2022-10-27T20:10:41.937Z,74.42
2022-10-27T20:13:48.724Z,74.63
2022-10-27T20:16:54.264Z,74.49
2022-10-27T20:19:59.916Z,74.68
2022-10-27T20:23:06.080Z,74.69
2022-10-27T20:26:29.984Z,74.80
2022-10-27T20:29:36.004Z,74.56
2022-10-27T20:32:43.689Z,74.46
2022-10-27T20:35:49.782Z,74.75
2022-10-27T20:38:56.662Z,74.71
2022-10-27T20:42:02.064Z,74.61
2022-10-27T20:45:09.095Z,74.68
2022-10-27T20:48:14.540Z,74.63
2022-10-27T20:51:21.601Z,74.70
2022-10-27T20:54:27.162Z,74.64
2022-10-27T20:57:32.725Z,74.86
2022-10-27T21:00:38.168Z,74.89
2022-10-27T21:03:43.605Z,74.81
2022-10-27T21:06:52.239Z,74.98
2022-10-27T21:09:57.690Z,74.97
2022-10-27T21:13:03.122Z,74.99
2022-10-27T21:16:09.521Z,75.04
2022-10-27T21:19:14.951Z,75.16
2022-10-27T21:22:20.601Z,75.21
2022-10-27T21:25:27.594Z,75.22
2022-10-27T21:28:33.025Z,75.11
2022-10-27T21:31:38.468Z,74.88
2022-10-27T21:34:43.896Z,74.93
2022-10-27T21:37:49.828Z,75.01
2022-10-27T21:40:58.630Z,75.02
2022-10-27T21:44:04.083Z,75.22
2022-10-27T21:47:09.503Z,75.38
2022-10-27T21:50:14.930Z,75.30
2022-10-27T21:53:20.972Z,75.17
2022-10-27T21:56:26.853Z,75.14
2022-10-27T21:59:32.519Z,75.21
2022-10-27T22:02:37.966Z,75.24
2022-10-27T22:05:43.969Z,75.32
2022-10-27T22:08:50.513Z,75.32
2022-10-27T22:11:56.014Z,75.44
2022-10-27T22:15:01.445Z,75.40
2022-10-27T22:18:06.953Z,75.41
2022-10-27T22:21:15.612Z,75.60
2022-10-27T22:24:21.113Z,75.68
2022-10-27T22:27:26.538Z,75.60
2022-10-27T22:30:31.985Z,75.60
2022-10-27T22:33:41.827Z,75.65
2022-10-27T22:36:51.122Z,75.77
2022-10-27T22:39:57.684Z,75.82
2022-10-27T22:43:03.122Z,76.00
2022-10-27T22:46:11.483Z,75.93
2022-10-27T22:49:16.978Z,75.89
2022-10-27T22:52:22.427Z,75.93
2022-10-27T22:55:27.975Z,76.04
2022-10-27T22:58:33.653Z,76.02
2022-10-27T23:01:40.812Z,76.22
2022-10-27T23:04:46.468Z,76.15
2022-10-27T23:07:52.015Z,76.14
2022-10-27T23:10:58.725Z,76.24
2022-10-27T23:14:04.572Z,76.27
2022-10-27T23:17:11.534Z,76.10
2022-10-27T23:20:17.284Z,76.01
2022-10-27T23:23:22.732Z,76.18
2022-10-27T23:26:30.036Z,76.33
2022-10-27T23:29:35.556Z,76.38
2022-10-27T23:32:40.944Z,76.45
2022-10-27T23:35:55.730Z,76.37
2022-10-27T23:39:01.337Z,76.34
2022-10-27T23:42:07.201Z,76.42
2022-10-27T23:45:13.378Z,76.53
2022-10-27T23:48:18.905Z,76.58
2022-10-27T23:51:25.239Z,76.55
2022-10-27T23:54:30.719Z,76.37
2022-10-27T23:57:36.166Z,76.36
